sensor_id;sensor_type;location;lat;lon;timestamp;P1;durP1;ratioP1;P2;durP2;ratioP2
79064;SDS011;68469;51.502;7.462;2023-07-08T00:01:49;5.63;;;2.70;;
79064;SDS011;68469;51.502;7.462;2023-07-08T00:04:15;6.25;;;2.85;;
79064;SDS011;68469;51.502;7.462;2023-07-08T00:06:40;5.88;;;2.97;;
79064;SDS011;68469;51.502;7.462;2023-07-08T00:09:10;6.70;;;2.65;;
79064;SDS011;68469;51.502;7.462;2023-07-08T00:11:37;7.30;;;3.28;;
79064;SDS011;68469;51.502;7.462;2023-07-08T00:14:03;5.43;;;2.90;;
79064;SDS011;68469;51.502;7.462;2023-07-08T00:16:28;7.90;;;2.92;;
79064;SDS011;68469;51.502;7.462;2023-07-08T00:18:54;3.85;;;2.50;;
79064;SDS011;68469;51.502;7.462;2023-07-08T00:21:19;4.18;;;2.72;;
79064;SDS011;68469;51.502;7.462;2023-07-08T00:23:49;4.00;;;2.88;;
79064;SDS011;68469;51.502;7.462;2023-07-08T00:26:19;8.35;;;2.92;;
79064;SDS011;68469;51.502;7.462;2023-07-08T00:28:54;3.42;;;2.15;;
79064;SDS011;68469;51.502;7.462;2023-07-08T00:31:21;8.75;;;2.60;;
79064;SDS011;68469;51.502;7.462;2023-07-08T00:33:49;7.07;;;2.80;;
79064;SDS011;68469;51.502;7.462;2023-07-08T00:36:15;5.32;;;2.65;;
79064;SDS011;68469;51.502;7.462;2023-07-08T00:38:42;4.00;;;2.80;;
79064;SDS011;68469;51.502;7.462;2023-07-08T00:41:12;5.60;;;2.67;;
79064;SDS011;68469;51.502;7.462;2023-07-08T00:44:00;5.78;;;2.58;;
79064;SDS011;68469;51.502;7.462;2023-07-08T00:51:39;4.35;;;2.40;;
79064;SDS011;68469;51.502;7.462;2023-07-08T00:54:11;7.43;;;2.78;;
79064;SDS011;68469;51.502;7.462;2023-07-08T00:56:40;4.47;;;2.80;;
79064;SDS011;68469;51.502;7.462;2023-07-08T00:59:31;6.18;;;2.88;;
79064;SDS011;68469;51.502;7.462;2023-07-08T01:02:02;4.97;;;2.72;;
79064;SDS011;68469;51.502;7.462;2023-07-08T01:04:52;7.03;;;2.50;;
79064;SDS011;68469;51.502;7.462;2023-07-08T01:07:21;4.05;;;2.50;;
79064;SDS011;68469;51.502;7.462;2023-07-08T01:09:51;7.88;;;2.53;;
79064;SDS011;68469;51.502;7.462;2023-07-08T01:12:28;7.53;;;2.83;;
79064;SDS011;68469;51.502;7.462;2023-07-08T01:15:07;8.88;;;2.90;;
79064;SDS011;68469;51.502;7.462;2023-07-08T01:17:34;3.72;;;2.63;;
79064;SDS011;68469;51.502;7.462;2023-07-08T01:20:01;6.72;;;2.85;;
79064;SDS011;68469;51.502;7.462;2023-07-08T01:22:37;5.90;;;2.90;;
79064;SDS011;68469;51.502;7.462;2023-07-08T01:25:03;4.53;;;2.55;;
79064;SDS011;68469;51.502;7.462;2023-07-08T01:27:34;4.25;;;2.22;;
79064;SDS011;68469;51.502;7.462;2023-07-08T01:30:05;3.88;;;2.38;;
79064;SDS011;68469;51.502;7.462;2023-07-08T01:32:33;3.90;;;2.45;;
79064;SDS011;68469;51.502;7.462;2023-07-08T01:35:01;6.65;;;2.42;;
79064;SDS011;68469;51.502;7.462;2023-07-08T01:37:50;2.95;;;2.65;;
79064;SDS011;68469;51.502;7.462;2023-07-08T01:43:01;4.15;;;2.67;;
79064;SDS011;68469;51.502;7.462;2023-07-08T01:45:33;4.13;;;2.58;;
79064;SDS011;68469;51.502;7.462;2023-07-08T01:48:05;5.88;;;2.72;;
79064;SDS011;68469;51.502;7.462;2023-07-08T01:50:42;3.67;;;2.85;;
79064;SDS011;68469;51.502;7.462;2023-07-08T01:53:30;5.25;;;2.63;;
79064;SDS011;68469;51.502;7.462;2023-07-08T01:56:00;3.88;;;2.60;;
79064;SDS011;68469;51.502;7.462;2023-07-08T01:58:26;4.95;;;2.92;;
79064;SDS011;68469;51.502;7.462;2023-07-08T02:00:52;11.27;;;2.72;;
79064;SDS011;68469;51.502;7.462;2023-07-08T02:03:19;5.93;;;2.70;;
79064;SDS011;68469;51.502;7.462;2023-07-08T02:05:45;6.13;;;2.78;;
79064;SDS011;68469;51.502;7.462;2023-07-08T02:08:11;6.93;;;2.80;;
79064;SDS011;68469;51.502;7.462;2023-07-08T02:10:37;9.45;;;2.72;;
79064;SDS011;68469;51.502;7.462;2023-07-08T02:13:04;5.80;;;2.80;;
79064;SDS011;68469;51.502;7.462;2023-07-08T02:15:29;5.25;;;2.80;;
79064;SDS011;68469;51.502;7.462;2023-07-08T02:17:55;10.00;;;2.63;;
79064;SDS011;68469;51.502;7.462;2023-07-08T02:20:21;4.65;;;2.95;;
79064;SDS011;68469;51.502;7.462;2023-07-08T02:22:47;4.65;;;3.20;;
79064;SDS011;68469;51.502;7.462;2023-07-08T02:25:13;7.32;;;3.00;;
79064;SDS011;68469;51.502;7.462;2023-07-08T02:27:38;5.07;;;2.60;;
79064;SDS011;68469;51.502;7.462;2023-07-08T02:30:04;5.50;;;2.88;;
79064;SDS011;68469;51.502;7.462;2023-07-08T02:32:31;5.05;;;3.05;;
79064;SDS011;68469;51.502;7.462;2023-07-08T02:34:59;4.93;;;2.80;;
79064;SDS011;68469;51.502;7.462;2023-07-08T02:37:25;7.50;;;2.92;;
79064;SDS011;68469;51.502;7.462;2023-07-08T02:39:51;8.40;;;2.92;;
79064;SDS011;68469;51.502;7.462;2023-07-08T02:42:16;6.63;;;2.90;;
79064;SDS011;68469;51.502;7.462;2023-07-08T02:44:42;6.15;;;2.60;;
79064;SDS011;68469;51.502;7.462;2023-07-08T02:47:07;7.22;;;2.95;;
79064;SDS011;68469;51.502;7.462;2023-07-08T02:49:33;6.38;;;2.72;;
79064;SDS011;68469;51.502;7.462;2023-07-08T02:51:59;4.45;;;2.60;;
79064;SDS011;68469;51.502;7.462;2023-07-08T02:54:24;4.82;;;2.60;;
79064;SDS011;68469;51.502;7.462;2023-07-08T02:56:50;5.63;;;3.08;;
79064;SDS011;68469;51.502;7.462;2023-07-08T02:59:16;3.95;;;2.60;;
79064;SDS011;68469;51.502;7.462;2023-07-08T03:01:41;4.25;;;3.03;;
79064;SDS011;68469;51.502;7.462;2023-07-08T03:04:10;5.35;;;2.50;;
79064;SDS011;68469;51.502;7.462;2023-07-08T03:06:38;8.60;;;3.17;;
79064;SDS011;68469;51.502;7.462;2023-07-08T03:09:08;7.45;;;3.10;;
79064;SDS011;68469;51.502;7.462;2023-07-08T03:11:35;7.60;;;3.00;;
79064;SDS011;68469;51.502;7.462;2023-07-08T03:14:01;5.75;;;3.10;;
79064;SDS011;68469;51.502;7.462;2023-07-08T03:16:26;7.47;;;2.88;;
79064;SDS011;68469;51.502;7.462;2023-07-08T03:18:52;4.32;;;2.85;;
79064;SDS011;68469;51.502;7.462;2023-07-08T03:21:18;5.05;;;2.33;;
79064;SDS011;68469;51.502;7.462;2023-07-08T03:23:44;7.03;;;2.78;;
79064;SDS011;68469;51.502;7.462;2023-07-08T03:26:13;6.28;;;3.35;;
79064;SDS011;68469;51.502;7.462;2023-07-08T03:28:40;4.13;;;2.70;;
79064;SDS011;68469;51.502;7.462;2023-07-08T03:31:08;5.75;;;2.60;;
79064;SDS011;68469;51.502;7.462;2023-07-08T03:33:34;4.82;;;2.63;;
79064;SDS011;68469;51.502;7.462;2023-07-08T03:36:01;4.80;;;2.72;;
79064;SDS011;68469;51.502;7.462;2023-07-08T03:38:27;4.00;;;2.75;;
79064;SDS011;68469;51.502;7.462;2023-07-08T03:40:53;5.30;;;2.88;;
79064;SDS011;68469;51.502;7.462;2023-07-08T03:43:18;4.05;;;3.05;;
79064;SDS011;68469;51.502;7.462;2023-07-08T03:45:44;3.47;;;2.67;;
79064;SDS011;68469;51.502;7.462;2023-07-08T03:48:10;5.00;;;2.80;;
79064;SDS011;68469;51.502;7.462;2023-07-08T03:50:36;3.92;;;2.55;;
79064;SDS011;68469;51.502;7.462;2023-07-08T03:53:03;5.63;;;2.50;;
79064;SDS011;68469;51.502;7.462;2023-07-08T03:55:29;4.60;;;2.67;;
79064;SDS011;68469;51.502;7.462;2023-07-08T03:57:54;4.45;;;2.90;;
79064;SDS011;68469;51.502;7.462;2023-07-08T04:00:20;4.93;;;2.85;;
79064;SDS011;68469;51.502;7.462;2023-07-08T04:02:46;3.78;;;2.50;;
79064;SDS011;68469;51.502;7.462;2023-07-08T04:05:15;4.40;;;2.88;;
79064;SDS011;68469;51.502;7.462;2023-07-08T04:07:42;8.82;;;2.78;;
79064;SDS011;68469;51.502;7.462;2023-07-08T04:10:08;3.83;;;2.72;;
79064;SDS011;68469;51.502;7.462;2023-07-08T04:12:35;5.10;;;2.72;;
79064;SDS011;68469;51.502;7.462;2023-07-08T04:15:01;3.28;;;2.50;;
79064;SDS011;68469;51.502;7.462;2023-07-08T04:17:27;3.40;;;2.60;;
79064;SDS011;68469;51.502;7.462;2023-07-08T04:19:53;4.15;;;2.60;;
79064;SDS011;68469;51.502;7.462;2023-07-08T04:22:19;4.13;;;2.70;;
79064;SDS011;68469;51.502;7.462;2023-07-08T04:24:45;4.22;;;2.90;;
79064;SDS011;68469;51.502;7.462;2023-07-08T04:27:14;4.03;;;2.80;;
79064;SDS011;68469;51.502;7.462;2023-07-08T04:29:41;4.53;;;2.58;;
79064;SDS011;68469;51.502;7.462;2023-07-08T04:32:07;6.40;;;2.53;;
79064;SDS011;68469;51.502;7.462;2023-07-08T04:34:33;6.32;;;3.22;;
79064;SDS011;68469;51.502;7.462;2023-07-08T04:36:59;5.72;;;2.55;;
79064;SDS011;68469;51.502;7.462;2023-07-08T04:39:24;6.90;;;3.17;;
79064;SDS011;68469;51.502;7.462;2023-07-08T04:41:50;5.95;;;3.17;;
79064;SDS011;68469;51.502;7.462;2023-07-08T04:44:16;4.57;;;2.92;;
79064;SDS011;68469;51.502;7.462;2023-07-08T04:46:49;8.07;;;2.80;;
79064;SDS011;68469;51.502;7.462;2023-07-08T04:49:19;10.07;;;3.15;;
79064;SDS011;68469;51.502;7.462;2023-07-08T04:51:45;5.40;;;2.92;;
79064;SDS011;68469;51.502;7.462;2023-07-08T04:54:11;5.32;;;3.22;;
79064;SDS011;68469;51.502;7.462;2023-07-08T04:59:03;6.47;;;3.67;;
79064;SDS011;68469;51.502;7.462;2023-07-08T05:01:29;5.97;;;3.05;;
79064;SDS011;68469;51.502;7.462;2023-07-08T05:03:55;6.07;;;3.20;;
79064;SDS011;68469;51.502;7.462;2023-07-08T05:06:21;9.80;;;2.97;;
79064;SDS011;68469;51.502;7.462;2023-07-08T05:08:47;6.45;;;3.22;;
79064;SDS011;68469;51.502;7.462;2023-07-08T05:11:12;5.40;;;3.20;;
79064;SDS011;68469;51.502;7.462;2023-07-08T05:13:38;4.68;;;2.90;;
79064;SDS011;68469;51.502;7.462;2023-07-08T05:16:03;8.70;;;3.65;;
79064;SDS011;68469;51.502;7.462;2023-07-08T05:18:29;4.65;;;2.92;;
79064;SDS011;68469;51.502;7.462;2023-07-08T05:20:55;6.32;;;2.40;;
79064;SDS011;68469;51.502;7.462;2023-07-08T05:23:21;6.10;;;2.90;;
79064;SDS011;68469;51.502;7.462;2023-07-08T05:25:47;6.85;;;2.70;;
79064;SDS011;68469;51.502;7.462;2023-07-08T05:28:12;6.72;;;2.97;;
79064;SDS011;68469;51.502;7.462;2023-07-08T05:30:39;5.70;;;2.90;;
79064;SDS011;68469;51.502;7.462;2023-07-08T05:33:06;3.70;;;2.55;;
79064;SDS011;68469;51.502;7.462;2023-07-08T05:35:32;7.10;;;3.10;;
79064;SDS011;68469;51.502;7.462;2023-07-08T05:37:57;4.82;;;2.38;;
79064;SDS011;68469;51.502;7.462;2023-07-08T05:40:23;3.45;;;2.75;;
79064;SDS011;68469;51.502;7.462;2023-07-08T05:42:49;5.72;;;2.83;;
79064;SDS011;68469;51.502;7.462;2023-07-08T05:45:14;6.30;;;2.78;;
79064;SDS011;68469;51.502;7.462;2023-07-08T05:47:40;3.95;;;2.47;;
79064;SDS011;68469;51.502;7.462;2023-07-08T05:50:06;5.00;;;2.70;;
79064;SDS011;68469;51.502;7.462;2023-07-08T05:52:32;6.63;;;2.80;;
79064;SDS011;68469;51.502;7.462;2023-07-08T05:54:57;5.00;;;2.60;;
79064;SDS011;68469;51.502;7.462;2023-07-08T05:57:23;6.63;;;2.53;;
79064;SDS011;68469;51.502;7.462;2023-07-08T05:59:49;4.60;;;2.33;;
79064;SDS011;68469;51.502;7.462;2023-07-08T06:02:15;5.30;;;2.47;;
79064;SDS011;68469;51.502;7.462;2023-07-08T06:04:41;8.27;;;2.33;;
79064;SDS011;68469;51.502;7.462;2023-07-08T06:07:07;5.68;;;2.90;;
79064;SDS011;68469;51.502;7.462;2023-07-08T06:09:33;4.85;;;2.50;;
79064;SDS011;68469;51.502;7.462;2023-07-08T06:11:59;6.10;;;2.83;;
79064;SDS011;68469;51.502;7.462;2023-07-08T06:14:25;5.35;;;2.88;;
79064;SDS011;68469;51.502;7.462;2023-07-08T06:16:51;5.25;;;3.08;;
79064;SDS011;68469;51.502;7.462;2023-07-08T06:19:17;4.57;;;3.03;;
79064;SDS011;68469;51.502;7.462;2023-07-08T06:21:43;5.18;;;2.90;;
79064;SDS011;68469;51.502;7.462;2023-07-08T06:24:08;3.17;;;2.47;;
79064;SDS011;68469;51.502;7.462;2023-07-08T06:26:34;4.55;;;2.90;;
79064;SDS011;68469;51.502;7.462;2023-07-08T06:29:00;4.00;;;2.42;;
79064;SDS011;68469;51.502;7.462;2023-07-08T06:31:26;5.00;;;2.83;;
79064;SDS011;68469;51.502;7.462;2023-07-08T06:33:51;4.13;;;2.38;;
79064;SDS011;68469;51.502;7.462;2023-07-08T06:36:17;5.57;;;2.75;;
79064;SDS011;68469;51.502;7.462;2023-07-08T06:38:43;4.45;;;2.70;;
79064;SDS011;68469;51.502;7.462;2023-07-08T06:41:08;3.78;;;2.63;;
79064;SDS011;68469;51.502;7.462;2023-07-08T06:43:34;4.95;;;2.90;;
79064;SDS011;68469;51.502;7.462;2023-07-08T06:45:59;9.00;;;3.08;;
79064;SDS011;68469;51.502;7.462;2023-07-08T06:48:25;10.25;;;3.53;;
79064;SDS011;68469;51.502;7.462;2023-07-08T06:50:50;7.03;;;3.05;;
79064;SDS011;68469;51.502;7.462;2023-07-08T06:53:16;9.90;;;2.85;;
79064;SDS011;68469;51.502;7.462;2023-07-08T06:55:44;7.38;;;3.40;;
79064;SDS011;68469;51.502;7.462;2023-07-08T06:58:10;10.57;;;3.75;;
79064;SDS011;68469;51.502;7.462;2023-07-08T07:00:36;6.53;;;3.00;;
79064;SDS011;68469;51.502;7.462;2023-07-08T07:03:01;7.15;;;3.50;;
79064;SDS011;68469;51.502;7.462;2023-07-08T07:05:27;6.88;;;3.20;;
79064;SDS011;68469;51.502;7.462;2023-07-08T07:07:53;5.97;;;3.28;;
79064;SDS011;68469;51.502;7.462;2023-07-08T07:10:19;12.05;;;2.92;;
79064;SDS011;68469;51.502;7.462;2023-07-08T07:12:45;7.13;;;3.30;;
79064;SDS011;68469;51.502;7.462;2023-07-08T07:15:10;9.82;;;3.17;;
79064;SDS011;68469;51.502;7.462;2023-07-08T07:17:36;4.05;;;2.40;;
79064;SDS011;68469;51.502;7.462;2023-07-08T07:20:02;6.65;;;3.38;;
79064;SDS011;68469;51.502;7.462;2023-07-08T07:22:28;8.02;;;2.72;;
79064;SDS011;68469;51.502;7.462;2023-07-08T07:24:54;9.02;;;3.35;;
79064;SDS011;68469;51.502;7.462;2023-07-08T07:27:20;6.13;;;3.33;;
79064;SDS011;68469;51.502;7.462;2023-07-08T07:29:46;5.30;;;3.20;;
79064;SDS011;68469;51.502;7.462;2023-07-08T07:32:14;5.15;;;3.22;;
79064;SDS011;68469;51.502;7.462;2023-07-08T07:34:41;6.53;;;3.63;;
79064;SDS011;68469;51.502;7.462;2023-07-08T07:37:10;5.38;;;3.50;;
79064;SDS011;68469;51.502;7.462;2023-07-08T07:39:37;6.03;;;3.88;;
79064;SDS011;68469;51.502;7.462;2023-07-08T07:42:03;7.40;;;3.25;;
79064;SDS011;68469;51.502;7.462;2023-07-08T07:44:29;6.93;;;3.38;;
79064;SDS011;68469;51.502;7.462;2023-07-08T07:46:55;6.53;;;3.63;;
79064;SDS011;68469;51.502;7.462;2023-07-08T07:49:20;7.75;;;3.47;;
79064;SDS011;68469;51.502;7.462;2023-07-08T07:51:46;7.22;;;3.38;;
79064;SDS011;68469;51.502;7.462;2023-07-08T07:54:13;6.38;;;3.75;;
79064;SDS011;68469;51.502;7.462;2023-07-08T07:56:39;7.93;;;3.95;;
79064;SDS011;68469;51.502;7.462;2023-07-08T07:59:05;5.03;;;3.60;;
79064;SDS011;68469;51.502;7.462;2023-07-08T08:01:30;5.72;;;3.53;;
79064;SDS011;68469;51.502;7.462;2023-07-08T08:03:56;5.78;;;3.28;;
79064;SDS011;68469;51.502;7.462;2023-07-08T08:06:21;6.32;;;3.42;;
79064;SDS011;68469;51.502;7.462;2023-07-08T08:08:47;6.28;;;3.90;;
79064;SDS011;68469;51.502;7.462;2023-07-08T08:11:14;7.85;;;4.28;;
79064;SDS011;68469;51.502;7.462;2023-07-08T08:13:40;8.95;;;4.15;;
79064;SDS011;68469;51.502;7.462;2023-07-08T08:16:06;7.07;;;4.53;;
79064;SDS011;68469;51.502;7.462;2023-07-08T08:18:32;6.20;;;3.80;;
79064;SDS011;68469;51.502;7.462;2023-07-08T08:20:58;6.93;;;4.05;;
79064;SDS011;68469;51.502;7.462;2023-07-08T08:23:23;9.43;;;4.03;;
79064;SDS011;68469;51.502;7.462;2023-07-08T08:25:52;8.02;;;4.88;;
79064;SDS011;68469;51.502;7.462;2023-07-08T08:28:18;8.52;;;4.65;;
79064;SDS011;68469;51.502;7.462;2023-07-08T08:30:50;6.65;;;4.03;;
79064;SDS011;68469;51.502;7.462;2023-07-08T08:33:16;5.03;;;4.13;;
79064;SDS011;68469;51.502;7.462;2023-07-08T08:35:43;5.82;;;4.00;;
79064;SDS011;68469;51.502;7.462;2023-07-08T08:38:09;6.88;;;4.28;;
79064;SDS011;68469;51.502;7.462;2023-07-08T08:40:34;5.45;;;4.07;;
79064;SDS011;68469;51.502;7.462;2023-07-08T08:43:02;7.45;;;4.85;;
79064;SDS011;68469;51.502;7.462;2023-07-08T08:45:44;5.70;;;4.35;;
79064;SDS011;68469;51.502;7.462;2023-07-08T08:48:15;5.63;;;4.28;;
79064;SDS011;68469;51.502;7.462;2023-07-08T08:55:43;10.23;;;5.13;;
79064;SDS011;68469;51.502;7.462;2023-07-08T09:01:02;8.00;;;4.63;;
79064;SDS011;68469;51.502;7.462;2023-07-08T09:06:21;7.18;;;4.78;;
79064;SDS011;68469;51.502;7.462;2023-07-08T09:08:51;7.28;;;4.75;;
79064;SDS011;68469;51.502;7.462;2023-07-08T09:11:25;8.15;;;5.25;;
79064;SDS011;68469;51.502;7.462;2023-07-08T09:14:01;6.22;;;4.20;;
79064;SDS011;68469;51.502;7.462;2023-07-08T09:19:22;10.98;;;4.93;;
79064;SDS011;68469;51.502;7.462;2023-07-08T09:21:56;7.03;;;4.68;;
79064;SDS011;68469;51.502;7.462;2023-07-08T09:24:29;7.68;;;4.80;;
79064;SDS011;68469;51.502;7.462;2023-07-08T09:27:02;7.53;;;4.72;;
79064;SDS011;68469;51.502;7.462;2023-07-08T09:29:28;9.65;;;5.03;;
79064;SDS011;68469;51.502;7.462;2023-07-08T09:31:54;8.88;;;5.50;;
79064;SDS011;68469;51.502;7.462;2023-07-08T09:34:23;5.90;;;4.07;;
79064;SDS011;68469;51.502;7.462;2023-07-08T09:37:00;6.63;;;4.97;;
79064;SDS011;68469;51.502;7.462;2023-07-08T09:39:25;7.22;;;4.63;;
79064;SDS011;68469;51.502;7.462;2023-07-08T09:41:55;6.68;;;4.53;;
79064;SDS011;68469;51.502;7.462;2023-07-08T09:44:29;7.65;;;4.63;;
79064;SDS011;68469;51.502;7.462;2023-07-08T09:46:56;8.15;;;4.82;;
79064;SDS011;68469;51.502;7.462;2023-07-08T09:49:28;8.15;;;5.20;;
79064;SDS011;68469;51.502;7.462;2023-07-08T09:51:56;8.15;;;4.63;;
79064;SDS011;68469;51.502;7.462;2023-07-08T09:54:23;6.88;;;4.70;;
79064;SDS011;68469;51.502;7.462;2023-07-08T09:57:00;7.50;;;4.63;;
79064;SDS011;68469;51.502;7.462;2023-07-08T09:59:37;6.53;;;4.80;;
79064;SDS011;68469;51.502;7.462;2023-07-08T10:05:13;6.75;;;4.35;;
79064;SDS011;68469;51.502;7.462;2023-07-08T10:07:42;8.18;;;4.10;;
79064;SDS011;68469;51.502;7.462;2023-07-08T10:10:12;6.15;;;4.80;;
79064;SDS011;68469;51.502;7.462;2023-07-08T10:15:17;8.63;;;4.50;;
79064;SDS011;68469;51.502;7.462;2023-07-08T10:17:46;6.40;;;4.50;;
79064;SDS011;68469;51.502;7.462;2023-07-08T10:20:12;7.22;;;4.40;;
79064;SDS011;68469;51.502;7.462;2023-07-08T10:25:53;6.25;;;4.00;;
79064;SDS011;68469;51.502;7.462;2023-07-08T10:28:31;5.93;;;4.38;;
79064;SDS011;68469;51.502;7.462;2023-07-08T10:31:52;5.22;;;3.80;;
79064;SDS011;68469;51.502;7.462;2023-07-08T10:42:29;8.85;;;3.95;;
79064;SDS011;68469;51.502;7.462;2023-07-08T10:47:39;5.15;;;3.30;;
79064;SDS011;68469;51.502;7.462;2023-07-08T10:55:56;4.78;;;3.28;;
79064;SDS011;68469;51.502;7.462;2023-07-08T10:58:59;7.57;;;3.13;;
79064;SDS011;68469;51.502;7.462;2023-07-08T11:01:55;5.85;;;3.40;;
79064;SDS011;68469;51.502;7.462;2023-07-08T11:07:39;7.30;;;3.22;;
79064;SDS011;68469;51.502;7.462;2023-07-08T11:10:16;7.13;;;2.85;;
79064;SDS011;68469;51.502;7.462;2023-07-08T11:12:56;7.88;;;3.22;;
79064;SDS011;68469;51.502;7.462;2023-07-08T11:15:49;5.53;;;2.90;;
79064;SDS011;68469;51.502;7.462;2023-07-08T11:18:48;5.88;;;3.20;;
79064;SDS011;68469;51.502;7.462;2023-07-08T11:21:10;5.88;;;3.13;;
79064;SDS011;68469;51.502;7.462;2023-07-08T11:24:14;3.22;;;2.70;;
79064;SDS011;68469;51.502;7.462;2023-07-08T11:29:39;3.72;;;2.70;;
79064;SDS011;68469;51.502;7.462;2023-07-08T11:32:11;4.68;;;2.80;;
79064;SDS011;68469;51.502;7.462;2023-07-08T11:34:41;5.07;;;2.70;;
79064;SDS011;68469;51.502;7.462;2023-07-08T11:37:09;5.00;;;3.05;;
79064;SDS011;68469;51.502;7.462;2023-07-08T11:39:43;4.63;;;2.83;;
79064;SDS011;68469;51.502;7.462;2023-07-08T11:42:17;4.93;;;3.20;;
79064;SDS011;68469;51.502;7.462;2023-07-08T11:44:54;8.40;;;3.50;;
79064;SDS011;68469;51.502;7.462;2023-07-08T11:47:24;6.78;;;2.80;;
79064;SDS011;68469;51.502;7.462;2023-07-08T11:52:59;5.45;;;2.75;;
79064;SDS011;68469;51.502;7.462;2023-07-08T11:55:34;3.28;;;2.67;;
79064;SDS011;68469;51.502;7.462;2023-07-08T11:58:22;4.93;;;2.88;;
79064;SDS011;68469;51.502;7.462;2023-07-08T12:00:57;3.78;;;2.60;;
79064;SDS011;68469;51.502;7.462;2023-07-08T12:03:36;4.50;;;2.53;;
79064;SDS011;68469;51.502;7.462;2023-07-08T12:08:52;5.85;;;3.05;;
79064;SDS011;68469;51.502;7.462;2023-07-08T12:11:18;4.82;;;2.90;;
79064;SDS011;68469;51.502;7.462;2023-07-08T12:14:00;4.28;;;2.78;;
79064;SDS011;68469;51.502;7.462;2023-07-08T12:16:28;5.85;;;3.00;;
79064;SDS011;68469;51.502;7.462;2023-07-08T12:18:55;3.55;;;2.80;;
79064;SDS011;68469;51.502;7.462;2023-07-08T12:21:24;13.38;;;4.53;;
79064;SDS011;68469;51.502;7.462;2023-07-08T12:23:52;3.35;;;2.50;;
79064;SDS011;68469;51.502;7.462;2023-07-08T12:26:18;5.15;;;2.30;;
79064;SDS011;68469;51.502;7.462;2023-07-08T12:28:44;4.97;;;2.50;;
79064;SDS011;68469;51.502;7.462;2023-07-08T12:31:13;5.07;;;2.58;;
79064;SDS011;68469;51.502;7.462;2023-07-08T12:33:43;4.80;;;2.90;;
79064;SDS011;68469;51.502;7.462;2023-07-08T12:36:10;4.05;;;2.80;;
79064;SDS011;68469;51.502;7.462;2023-07-08T12:38:41;5.00;;;2.90;;
79064;SDS011;68469;51.502;7.462;2023-07-08T12:41:12;3.53;;;2.40;;
79064;SDS011;68469;51.502;7.462;2023-07-08T12:43:44;6.85;;;2.97;;
79064;SDS011;68469;51.502;7.462;2023-07-08T12:46:10;4.50;;;2.78;;
79064;SDS011;68469;51.502;7.462;2023-07-08T12:48:38;5.72;;;3.13;;
79064;SDS011;68469;51.502;7.462;2023-07-08T12:51:05;7.10;;;3.22;;
79064;SDS011;68469;51.502;7.462;2023-07-08T12:53:35;6.30;;;2.95;;
79064;SDS011;68469;51.502;7.462;2023-07-08T12:56:01;4.72;;;2.88;;
79064;SDS011;68469;51.502;7.462;2023-07-08T12:58:28;5.05;;;2.92;;
79064;SDS011;68469;51.502;7.462;2023-07-08T13:01:00;5.40;;;3.63;;
79064;SDS011;68469;51.502;7.462;2023-07-08T13:03:29;4.43;;;3.10;;
79064;SDS011;68469;51.502;7.462;2023-07-08T13:05:59;4.32;;;3.17;;
79064;SDS011;68469;51.502;7.462;2023-07-08T13:08:27;6.25;;;3.55;;
79064;SDS011;68469;51.502;7.462;2023-07-08T13:10:58;5.32;;;3.67;;
79064;SDS011;68469;51.502;7.462;2023-07-08T13:13:26;4.25;;;3.20;;
79064;SDS011;68469;51.502;7.462;2023-07-08T13:15:55;5.35;;;3.40;;
79064;SDS011;68469;51.502;7.462;2023-07-08T13:18:25;4.63;;;3.25;;
79064;SDS011;68469;51.502;7.462;2023-07-08T13:20:59;5.78;;;4.40;;
79064;SDS011;68469;51.502;7.462;2023-07-08T13:23:26;5.50;;;3.63;;
79064;SDS011;68469;51.502;7.462;2023-07-08T13:25:53;5.75;;;3.50;;
79064;SDS011;68469;51.502;7.462;2023-07-08T13:28:23;6.70;;;3.20;;
79064;SDS011;68469;51.502;7.462;2023-07-08T13:30:59;6.97;;;3.38;;
79064;SDS011;68469;51.502;7.462;2023-07-08T13:33:30;4.80;;;3.20;;
79064;SDS011;68469;51.502;7.462;2023-07-08T13:36:00;4.28;;;3.10;;
79064;SDS011;68469;51.502;7.462;2023-07-08T13:38:32;3.65;;;2.88;;
79064;SDS011;68469;51.502;7.462;2023-07-08T13:41:03;4.97;;;3.28;;
79064;SDS011;68469;51.502;7.462;2023-07-08T13:43:34;6.03;;;3.35;;
79064;SDS011;68469;51.502;7.462;2023-07-08T13:46:02;5.10;;;3.60;;
79064;SDS011;68469;51.502;7.462;2023-07-08T13:48:42;6.05;;;4.05;;
79064;SDS011;68469;51.502;7.462;2023-07-08T13:51:09;4.25;;;3.13;;
79064;SDS011;68469;51.502;7.462;2023-07-08T13:53:45;5.25;;;3.40;;
79064;SDS011;68469;51.502;7.462;2023-07-08T13:58:47;4.05;;;2.90;;
79064;SDS011;68469;51.502;7.462;2023-07-08T14:01:21;4.20;;;3.25;;
79064;SDS011;68469;51.502;7.462;2023-07-08T14:03:50;8.60;;;3.50;;
79064;SDS011;68469;51.502;7.462;2023-07-08T14:06:18;4.20;;;3.28;;
79064;SDS011;68469;51.502;7.462;2023-07-08T14:08:48;4.30;;;3.03;;
79064;SDS011;68469;51.502;7.462;2023-07-08T14:11:16;6.13;;;3.53;;
79064;SDS011;68469;51.502;7.462;2023-07-08T14:13:42;5.78;;;3.40;;
79064;SDS011;68469;51.502;7.462;2023-07-08T14:16:19;6.45;;;3.30;;
79064;SDS011;68469;51.502;7.462;2023-07-08T14:18:50;5.68;;;3.42;;
79064;SDS011;68469;51.502;7.462;2023-07-08T14:21:16;6.10;;;3.55;;
79064;SDS011;68469;51.502;7.462;2023-07-08T14:23:43;4.95;;;3.30;;
79064;SDS011;68469;51.502;7.462;2023-07-08T14:26:09;4.88;;;3.58;;
79064;SDS011;68469;51.502;7.462;2023-07-08T14:28:36;7.85;;;3.58;;
79064;SDS011;68469;51.502;7.462;2023-07-08T14:31:01;7.07;;;3.13;;
79064;SDS011;68469;51.502;7.462;2023-07-08T14:33:27;4.80;;;3.42;;
79064;SDS011;68469;51.502;7.462;2023-07-08T14:35:53;4.80;;;3.45;;
79064;SDS011;68469;51.502;7.462;2023-07-08T14:38:18;5.35;;;3.28;;
79064;SDS011;68469;51.502;7.462;2023-07-08T14:40:44;5.18;;;3.58;;
79064;SDS011;68469;51.502;7.462;2023-07-08T14:43:12;5.68;;;3.65;;
79064;SDS011;68469;51.502;7.462;2023-07-08T14:45:43;8.20;;;3.63;;
79064;SDS011;68469;51.502;7.462;2023-07-08T14:48:13;6.15;;;3.38;;
79064;SDS011;68469;51.502;7.462;2023-07-08T14:50:39;5.28;;;3.33;;
79064;SDS011;68469;51.502;7.462;2023-07-08T14:53:05;7.13;;;3.47;;
79064;SDS011;68469;51.502;7.462;2023-07-08T14:55:30;4.75;;;3.25;;
79064;SDS011;68469;51.502;7.462;2023-07-08T14:57:57;6.00;;;3.47;;
79064;SDS011;68469;51.502;7.462;2023-07-08T15:00:23;4.28;;;3.15;;
79064;SDS011;68469;51.502;7.462;2023-07-08T15:02:49;5.60;;;3.38;;
79064;SDS011;68469;51.502;7.462;2023-07-08T15:05:21;5.63;;;3.50;;
79064;SDS011;68469;51.502;7.462;2023-07-08T15:07:53;7.05;;;3.83;;
79064;SDS011;68469;51.502;7.462;2023-07-08T15:10:20;6.93;;;3.83;;
79064;SDS011;68469;51.502;7.462;2023-07-08T15:12:53;5.25;;;3.55;;
79064;SDS011;68469;51.502;7.462;2023-07-08T15:15:32;5.15;;;3.53;;
79064;SDS011;68469;51.502;7.462;2023-07-08T15:18:01;10.43;;;3.83;;
79064;SDS011;68469;51.502;7.462;2023-07-08T15:20:31;5.40;;;4.18;;
79064;SDS011;68469;51.502;7.462;2023-07-08T15:22:57;7.20;;;4.22;;
79064;SDS011;68469;51.502;7.462;2023-07-08T15:25:23;5.88;;;3.97;;
79064;SDS011;68469;51.502;7.462;2023-07-08T15:27:51;6.10;;;3.97;;
79064;SDS011;68469;51.502;7.462;2023-07-08T15:30:22;4.85;;;3.90;;
79064;SDS011;68469;51.502;7.462;2023-07-08T15:32:49;8.40;;;4.38;;
79064;SDS011;68469;51.502;7.462;2023-07-08T15:35:17;6.13;;;3.85;;
79064;SDS011;68469;51.502;7.462;2023-07-08T15:37:44;5.75;;;4.47;;
79064;SDS011;68469;51.502;7.462;2023-07-08T15:40:14;4.60;;;3.60;;
79064;SDS011;68469;51.502;7.462;2023-07-08T15:42:41;8.38;;;4.63;;
79064;SDS011;68469;51.502;7.462;2023-07-08T15:45:13;6.25;;;4.10;;
79064;SDS011;68469;51.502;7.462;2023-07-08T15:47:40;6.40;;;4.57;;
79064;SDS011;68469;51.502;7.462;2023-07-08T15:50:13;6.50;;;4.40;;
79064;SDS011;68469;51.502;7.462;2023-07-08T15:52:40;7.50;;;3.47;;
79064;SDS011;68469;51.502;7.462;2023-07-08T15:55:09;7.80;;;4.13;;
79064;SDS011;68469;51.502;7.462;2023-07-08T15:57:52;5.43;;;3.80;;
79064;SDS011;68469;51.502;7.462;2023-07-08T16:00:22;7.78;;;4.10;;
79064;SDS011;68469;51.502;7.462;2023-07-08T16:02:52;5.18;;;3.58;;